createdAt,value
2022-07-29T00:00:06.601Z,17.84
2022-07-29T00:01:08.099Z,17.81
2022-07-29T00:02:21.084Z,17.81
2022-07-29T00:03:22.766Z,17.81
2022-07-29T00:04:24.345Z,17.58
2022-07-29T00:05:26.087Z,17.67
2022-07-29T00:06:27.573Z,17.64
2022-07-29T00:07:29.177Z,17.55
2022-07-29T00:08:30.715Z,17.59
2022-07-29T00:09:33.635Z,17.50
2022-07-29T00:10:51.979Z,17.58
2022-07-29T00:11:54.578Z,17.57
2022-07-29T00:12:56.051Z,17.71
2022-07-29T00:13:57.756Z,17.60
2022-07-29T00:14:59.229Z,17.80
2022-07-29T00:16:04.481Z,17.72
2022-07-29T00:17:06.730Z,17.73
2022-07-29T00:18:08.279Z,17.77
2022-07-29T00:19:09.744Z,17.82
2022-07-29T00:20:12.534Z,17.78
2022-07-29T00:21:14.144Z,17.73
2022-07-29T00:22:15.878Z,17.70
2022-07-29T00:23:17.346Z,17.69
2022-07-29T00:24:19.233Z,17.71
2022-07-29T00:25:22.108Z,17.77
2022-07-29T00:26:24.081Z,17.80
2022-07-29T00:27:25.540Z,17.83
2022-07-29T00:28:27.110Z,17.80
2022-07-29T00:29:34.220Z,17.55
2022-07-29T00:30:36.289Z,17.46
2022-07-29T00:31:37.773Z,17.48
2022-07-29T00:32:39.235Z,17.48
2022-07-29T00:33:40.716Z,17.29
2022-07-29T00:34:42.274Z,17.25
2022-07-29T00:35:43.812Z,17.18
2022-07-29T00:36:45.266Z,17.19
2022-07-29T00:37:46.726Z,17.38
2022-07-29T00:38:48.312Z,17.25
2022-07-29T00:39:50.014Z,17.23
2022-07-29T00:40:52.813Z,17.18
2022-07-29T00:41:54.271Z,17.03
2022-07-29T00:42:55.714Z,17.05
2022-07-29T00:43:57.137Z,17.16
2022-07-29T00:44:58.579Z,17.16
2022-07-29T00:46:00.041Z,17.13
2022-07-29T00:47:01.531Z,17.22
2022-07-29T00:48:03.588Z,17.24
2022-07-29T00:49:05.216Z,17.15
2022-07-29T00:50:08.505Z,17.12
2022-07-29T00:51:10.019Z,17.04
2022-07-29T00:52:12.283Z,17.06
2022-07-29T00:53:13.802Z,17.06
2022-07-29T00:54:15.657Z,17.04
2022-07-29T00:55:18.110Z,17.06
2022-07-29T00:56:21.112Z,17.16
2022-07-29T00:57:22.763Z,17.19
2022-07-29T00:58:25.267Z,17.19
2022-07-29T00:59:27.317Z,17.12
2022-07-29T01:00:36.854Z,17.13
2022-07-29T01:01:38.496Z,17.10
2022-07-29T01:02:40.040Z,17.06
2022-07-29T01:03:41.514Z,17.15
2022-07-29T01:04:42.961Z,17.10
2022-07-29T01:05:49.883Z,17.12
2022-07-29T01:06:55.389Z,17.28
2022-07-29T01:07:58.559Z,17.13
2022-07-29T01:09:00.906Z,17.07
2022-07-29T01:10:03.451Z,17.09
2022-07-29T01:11:04.897Z,17.15
2022-07-29T01:12:08.478Z,17.04
2022-07-29T01:13:11.389Z,17.06
2022-07-29T01:14:13.427Z,17.15
2022-07-29T01:15:15.581Z,17.09
2022-07-29T01:16:25.854Z,17.16
2022-07-29T01:17:33.126Z,17.17
2022-07-29T01:18:38.582Z,17.30
2022-07-29T01:19:49.818Z,17.32
2022-07-29T01:21:16.583Z,17.21
2022-07-29T01:22:28.397Z,17.18
2022-07-29T01:24:00.373Z,17.21
2022-07-29T01:25:06.551Z,17.26
2022-07-29T01:26:28.625Z,17.24
2022-07-29T01:27:45.632Z,17.07
2022-07-29T01:29:06.122Z,17.23
2022-07-29T01:30:09.818Z,17.26
2022-07-29T01:31:21.271Z,17.37
2022-07-29T01:32:29.557Z,17.25
2022-07-29T01:33:32.359Z,17.25
2022-07-29T01:34:42.078Z,17.26
2022-07-29T01:35:45.913Z,17.23
2022-07-29T01:36:51.195Z,17.15
2022-07-29T01:37:58.270Z,17.16
2022-07-29T01:39:05.952Z,17.18
2022-07-29T01:40:14.943Z,17.20
2022-07-29T01:41:18.467Z,17.30
2022-07-29T01:42:28.456Z,17.27
2022-07-29T01:43:38.546Z,17.26
2022-07-29T01:44:49.233Z,17.22
2022-07-29T01:45:56.986Z,17.22
2022-07-29T01:47:02.812Z,17.24
2022-07-29T01:48:07.727Z,17.29
2022-07-29T01:49:11.920Z,17.34
2022-07-29T01:50:16.863Z,17.40
2022-07-29T01:51:21.311Z,17.49
2022-07-29T01:52:28.486Z,17.46
2022-07-29T01:53:37.988Z,17.41
2022-07-29T01:54:43.149Z,17.48
2022-07-29T01:55:46.701Z,17.43
2022-07-29T01:56:50.886Z,17.44
2022-07-29T01:57:52.750Z,17.41
2022-07-29T01:58:55.308Z,17.35
2022-07-29T02:00:00.363Z,17.42
2022-07-29T02:01:03.693Z,17.53
2022-07-29T02:02:07.569Z,17.47
2022-07-29T02:03:12.553Z,17.29
2022-07-29T02:04:29.525Z,17.40
2022-07-29T02:05:33.636Z,17.22
2022-07-29T02:06:38.133Z,17.17
2022-07-29T02:07:42.846Z,17.07
2022-07-29T02:08:46.591Z,17.18
2022-07-29T02:09:50.469Z,17.01
2022-07-29T02:10:53.664Z,16.98
2022-07-29T02:11:56.833Z,16.88
2022-07-29T02:12:59.773Z,16.96
2022-07-29T02:14:03.093Z,16.96
2022-07-29T02:15:08.063Z,17.07
2022-07-29T02:16:13.254Z,17.12
2022-07-29T02:17:21.590Z,17.08
2022-07-29T02:18:26.130Z,17.01
2022-07-29T02:19:29.395Z,17.10
2022-07-29T02:20:32.464Z,17.14
2022-07-29T02:21:36.210Z,17.05
2022-07-29T02:22:40.055Z,17.11
2022-07-29T02:23:45.092Z,17.12
2022-07-29T02:24:53.984Z,17.14
2022-07-29T02:25:57.658Z,17.12
2022-07-29T02:27:00.967Z,17.17
2022-07-29T02:28:04.722Z,17.24
2022-07-29T02:29:09.522Z,17.18
2022-07-29T02:30:13.496Z,17.27
2022-07-29T02:31:17.747Z,17.28
2022-07-29T02:32:22.345Z,17.14
2022-07-29T02:33:25.026Z,17.17
2022-07-29T02:34:27.893Z,17.14
2022-07-29T02:35:34.617Z,17.13
2022-07-29T02:36:37.636Z,17.24
2022-07-29T02:37:40.872Z,17.23
2022-07-29T02:38:44.804Z,17.22
2022-07-29T02:39:48.047Z,17.22
2022-07-29T02:40:51.417Z,17.31
2022-07-29T02:41:59.179Z,17.27
2022-07-29T02:43:02.610Z,17.24
2022-07-29T02:44:10.111Z,17.27
2022-07-29T02:45:12.894Z,17.31
2022-07-29T02:46:28.754Z,17.25
2022-07-29T02:47:42.075Z,17.30
2022-07-29T02:48:51.519Z,17.26
2022-07-29T02:49:58.353Z,17.24
2022-07-29T02:51:07.923Z,17.16
2022-07-29T02:52:15.877Z,17.15
2022-07-29T02:53:20.876Z,17.16
2022-07-29T02:54:34.714Z,17.15
2022-07-29T02:55:41.237Z,17.14
2022-07-29T02:56:45.184Z,17.09
2022-07-29T02:57:55.471Z,17.04
2022-07-29T02:58:59.500Z,17.02
2022-07-29T03:00:05.674Z,16.95
2022-07-29T03:01:16.755Z,16.95
2022-07-29T03:02:23.069Z,16.93
2022-07-29T03:03:29.277Z,16.97
2022-07-29T03:04:33.063Z,16.96
2022-07-29T03:05:35.941Z,16.90
2022-07-29T03:06:39.471Z,16.90
2022-07-29T03:07:43.988Z,17.00
2022-07-29T03:08:46.951Z,16.99
2022-07-29T03:09:49.758Z,17.00
2022-07-29T03:10:52.974Z,17.01
2022-07-29T03:11:55.472Z,16.91
2022-07-29T03:12:58.394Z,16.88
2022-07-29T03:14:01.719Z,16.80
2022-07-29T03:15:03.979Z,16.74
2022-07-29T03:16:06.523Z,16.76
2022-07-29T03:17:10.656Z,16.74
2022-07-29T03:18:12.796Z,16.71
2022-07-29T03:19:15.359Z,16.72
2022-07-29T03:20:18.989Z,16.66
2022-07-29T03:21:20.599Z,16.68
2022-07-29T03:22:22.324Z,16.70
2022-07-29T03:23:24.748Z,16.66
2022-07-29T03:24:27.822Z,16.75
2022-07-29T03:25:29.384Z,16.69
2022-07-29T03:26:31.102Z,16.55
2022-07-29T03:27:32.623Z,16.58
2022-07-29T03:28:34.141Z,16.61
2022-07-29T03:29:35.810Z,16.51
2022-07-29T03:30:37.710Z,16.55
2022-07-29T03:31:40.381Z,16.53
2022-07-29T03:32:46.560Z,16.42
2022-07-29T03:33:48.017Z,16.52
2022-07-29T03:34:49.496Z,16.51
2022-07-29T03:35:50.966Z,16.57
2022-07-29T03:36:52.402Z,16.57
2022-07-29T03:37:53.880Z,16.57
2022-07-29T03:38:56.550Z,16.52
2022-07-29T03:39:59.001Z,16.51
2022-07-29T03:41:06.632Z,16.48
2022-07-29T03:42:11.213Z,16.54
2022-07-29T03:43:16.335Z,16.51
2022-07-29T03:44:19.079Z,16.54
2022-07-29T03:45:21.407Z,16.58
2022-07-29T03:46:27.351Z,16.44
2022-07-29T03:47:36.835Z,16.40
2022-07-29T03:48:58.439Z,16.35
2022-07-29T03:50:03.278Z,16.30
2022-07-29T03:51:04.762Z,16.23
2022-07-29T03:52:06.701Z,16.17
2022-07-29T03:53:09.085Z,16.26
2022-07-29T03:54:10.806Z,16.24
2022-07-29T03:55:12.937Z,16.28
2022-07-29T03:56:17.784Z,16.28
2022-07-29T03:57:21.298Z,16.32
2022-07-29T03:58:26.936Z,16.36
2022-07-29T03:59:30.509Z,16.33
2022-07-29T04:00:33.306Z,16.26
2022-07-29T04:01:35.689Z,16.17
2022-07-29T04:02:38.745Z,16.27
2022-07-29T04:03:40.444Z,16.25
2022-07-29T04:04:43.473Z,16.26
2022-07-29T04:05:44.905Z,16.21
2022-07-29T04:06:48.389Z,16.25
2022-07-29T04:07:50.001Z,16.16
2022-07-29T04:08:51.488Z,16.20
2022-07-29T04:09:52.987Z,16.23
2022-07-29T04:10:54.523Z,16.22
2022-07-29T04:12:00.669Z,16.21
2022-07-29T04:13:04.280Z,16.23
2022-07-29T04:14:06.024Z,16.22
2022-07-29T04:15:08.694Z,16.20
2022-07-29T04:16:10.223Z,16.29
2022-07-29T04:17:11.768Z,16.38
2022-07-29T04:18:13.224Z,16.36
2022-07-29T04:19:14.708Z,16.41
2022-07-29T04:20:17.519Z,16.44
2022-07-29T04:21:19.020Z,16.48
2022-07-29T04:22:20.473Z,16.47
2022-07-29T04:23:21.970Z,16.48
2022-07-29T04:24:23.448Z,16.35
2022-07-29T04:25:24.946Z,16.55
2022-07-29T04:26:26.405Z,16.43
2022-07-29T04:27:28.033Z,16.55
2022-07-29T04:28:29.641Z,16.54
2022-07-29T04:29:31.101Z,16.57
2022-07-29T04:30:33.578Z,16.63
2022-07-29T04:31:35.174Z,16.69
2022-07-29T04:32:36.694Z,16.73
2022-07-29T04:33:38.195Z,16.84
2022-07-29T04:34:39.723Z,16.82
2022-07-29T04:35:49.715Z,16.85
2022-07-29T04:36:52.186Z,16.85
2022-07-29T04:37:53.786Z,16.83
2022-07-29T04:38:55.228Z,16.74
2022-07-29T04:39:56.683Z,16.76
2022-07-29T04:40:58.131Z,16.55
2022-07-29T04:41:59.632Z,16.26
2022-07-29T04:43:01.706Z,16.20
2022-07-29T04:44:07.513Z,16.21
2022-07-29T04:45:10.509Z,16.20
2022-07-29T04:46:12.254Z,16.13
2022-07-29T04:47:13.803Z,16.12
2022-07-29T04:48:15.323Z,16.16
2022-07-29T04:49:16.870Z,16.27
2022-07-29T04:50:18.531Z,16.17
2022-07-29T04:51:21.409Z,16.25
2022-07-29T04:52:22.983Z,16.23
2022-07-29T04:53:24.581Z,16.18
2022-07-29T04:54:26.021Z,16.12
2022-07-29T04:55:27.933Z,16.11
2022-07-29T04:56:29.532Z,16.10
2022-07-29T04:57:31.399Z,16.13
2022-07-29T04:58:35.190Z,16.23
2022-07-29T04:59:36.637Z,16.22
2022-07-29T05:00:38.118Z,16.18
2022-07-29T05:01:39.631Z,16.30
2022-07-29T05:02:41.204Z,16.42
2022-07-29T05:03:42.829Z,16.46
2022-07-29T05:04:44.276Z,16.45
2022-07-29T05:05:45.698Z,16.58
2022-07-29T05:06:48.849Z,16.58
2022-07-29T05:07:50.432Z,16.48
2022-07-29T05:08:51.924Z,16.55
2022-07-29T05:09:53.393Z,16.58
2022-07-29T05:10:55.075Z,16.66
2022-07-29T05:11:56.518Z,16.66
2022-07-29T05:12:57.965Z,16.71
2022-07-29T05:13:59.579Z,16.75
2022-07-29T05:15:01.125Z,16.85
2022-07-29T05:16:02.692Z,16.97
2022-07-29T05:17:04.868Z,17.02
2022-07-29T05:18:06.377Z,17.03
2022-07-29T05:19:13.702Z,17.09
2022-07-29T05:20:15.797Z,17.25
2022-07-29T05:21:17.351Z,17.13
2022-07-29T05:22:20.992Z,17.23
2022-07-29T05:23:22.487Z,17.24
2022-07-29T05:24:24.021Z,17.36
2022-07-29T05:25:42.958Z,17.34
2022-07-29T05:26:45.571Z,17.39
2022-07-29T05:27:47.079Z,17.57
2022-07-29T05:28:52.547Z,17.58
2022-07-29T05:29:54.028Z,17.52
2022-07-29T05:30:55.568Z,17.51
2022-07-29T05:31:57.119Z,17.70
2022-07-29T05:32:58.589Z,17.76
2022-07-29T05:34:00.050Z,17.83
2022-07-29T05:35:01.645Z,17.92
2022-07-29T05:36:03.747Z,18.00
2022-07-29T05:37:05.273Z,17.85
2022-07-29T05:38:08.096Z,18.14
2022-07-29T05:39:09.550Z,18.20
2022-07-29T05:40:11.294Z,18.26
2022-07-29T05:41:12.774Z,17.96
2022-07-29T05:42:14.206Z,17.87
2022-07-29T05:43:15.655Z,17.88
2022-07-29T05:44:17.861Z,17.75
2022-07-29T05:45:19.516Z,17.75
2022-07-29T05:46:21.037Z,17.65
2022-07-29T05:47:23.129Z,17.73
2022-07-29T05:48:24.696Z,17.83
2022-07-29T05:49:27.270Z,17.77
2022-07-29T05:50:29.062Z,17.94
2022-07-29T05:51:30.556Z,17.80
2022-07-29T05:52:31.994Z,17.97
2022-07-29T05:53:34.855Z,18.05
2022-07-29T05:54:36.597Z,18.05
2022-07-29T05:55:38.082Z,18.23
2022-07-29T05:56:40.882Z,18.40
2022-07-29T05:57:42.384Z,18.45
2022-07-29T05:58:43.853Z,18.55
2022-07-29T05:59:45.332Z,18.67
2022-07-29T06:00:47.418Z,18.71
2022-07-29T06:01:49.013Z,18.70
2022-07-29T06:02:50.519Z,18.80
2022-07-29T06:03:52.803Z,18.67
2022-07-29T06:04:54.385Z,18.81
2022-07-29T06:05:55.937Z,18.96
2022-07-29T06:06:57.387Z,18.99
2022-07-29T06:07:58.865Z,19.04
2022-07-29T06:09:09.169Z,18.98
2022-07-29T06:10:14.147Z,19.01
2022-07-29T06:11:15.638Z,18.98
2022-07-29T06:12:17.061Z,18.90
2022-07-29T06:13:18.496Z,18.95
2022-07-29T06:14:20.051Z,18.98
2022-07-29T06:15:21.551Z,19.11
2022-07-29T06:16:26.166Z,19.13
2022-07-29T06:17:31.898Z,19.20
2022-07-29T06:18:33.370Z,19.24
2022-07-29T06:19:35.602Z,19.31
2022-07-29T06:20:37.194Z,19.31
2022-07-29T06:21:42.605Z,19.24
2022-07-29T06:22:44.045Z,19.41
2022-07-29T06:23:45.978Z,19.46
2022-07-29T06:24:48.803Z,19.45
2022-07-29T06:25:50.244Z,19.55
2022-07-29T06:26:51.684Z,19.48
2022-07-29T06:27:53.277Z,19.66
2022-07-29T06:28:54.781Z,19.72
2022-07-29T06:29:56.946Z,19.73
2022-07-29T06:30:58.465Z,19.50
2022-07-29T06:31:59.916Z,19.50
2022-07-29T06:33:01.573Z,19.54
2022-07-29T06:34:03.543Z,19.58
2022-07-29T06:35:33.045Z,19.49
2022-07-29T06:36:27.292Z,19.54
2022-07-29T06:37:29.548Z,19.64
2022-07-29T06:38:34.052Z,19.63
2022-07-29T06:39:36.109Z,19.49
2022-07-29T06:40:42.130Z,19.33
2022-07-29T06:41:47.994Z,19.32
2022-07-29T06:42:49.478Z,19.13
2022-07-29T06:43:54.358Z,18.84
2022-07-29T06:44:56.193Z,18.83
2022-07-29T06:45:57.972Z,18.89
2022-07-29T06:46:59.464Z,18.80
2022-07-29T06:48:01.045Z,18.87
2022-07-29T06:49:02.843Z,19.09
2022-07-29T06:50:05.509Z,18.82
2022-07-29T06:51:10.065Z,19.03
2022-07-29T06:52:11.530Z,18.93
2022-07-29T06:53:12.991Z,18.78
2022-07-29T06:54:14.609Z,18.63
2022-07-29T06:55:24.865Z,18.78
2022-07-29T06:56:28.501Z,18.67
2022-07-29T06:57:30.010Z,18.71
2022-07-29T06:58:31.497Z,18.64
2022-07-29T06:59:35.856Z,18.77
2022-07-29T07:00:37.632Z,18.89
2022-07-29T07:01:41.334Z,18.64
2022-07-29T07:02:42.940Z,18.70
2022-07-29T07:03:44.446Z,18.79
2022-07-29T07:04:45.886Z,18.79
2022-07-29T07:05:47.709Z,18.83
2022-07-29T07:06:49.212Z,18.93
2022-07-29T07:07:50.633Z,18.85
2022-07-29T07:08:52.094Z,18.71
2022-07-29T07:09:53.587Z,18.60
2022-07-29T07:10:55.191Z,18.74
2022-07-29T07:11:57.954Z,18.66
2022-07-29T07:13:00.409Z,18.92
2022-07-29T07:14:03.843Z,18.66
2022-07-29T07:15:07.115Z,18.85
2022-07-29T07:16:08.580Z,18.70
2022-07-29T07:17:10.093Z,18.64
2022-07-29T07:18:11.725Z,18.71
2022-07-29T07:19:14.093Z,18.51
2022-07-29T07:20:15.837Z,18.84
2022-07-29T07:21:19.012Z,18.71
2022-07-29T07:22:21.152Z,18.81
2022-07-29T07:23:22.645Z,18.88
2022-07-29T07:24:24.157Z,19.02
2022-07-29T07:25:25.952Z,18.89
2022-07-29T07:26:28.307Z,18.89
2022-07-29T07:27:31.134Z,18.81
2022-07-29T07:28:32.685Z,18.63
2022-07-29T07:29:34.133Z,18.62
2022-07-29T07:30:35.776Z,18.66
2022-07-29T07:31:37.387Z,18.73
2022-07-29T07:32:38.874Z,18.90
2022-07-29T07:33:40.427Z,18.90
2022-07-29T07:34:41.897Z,18.72
2022-07-29T07:35:43.400Z,19.08
2022-07-29T07:36:44.839Z,18.92
2022-07-29T07:37:48.184Z,19.24
2022-07-29T07:38:50.219Z,19.10
2022-07-29T07:39:51.707Z,19.33
2022-07-29T07:40:53.218Z,19.42
2022-07-29T07:41:54.665Z,19.70
2022-07-29T07:42:57.476Z,20.04
2022-07-29T07:43:59.193Z,20.02
2022-07-29T07:45:16.115Z,20.51
2022-07-29T07:46:18.266Z,20.94
2022-07-29T07:47:19.858Z,20.93
2022-07-29T07:48:21.952Z,21.00
2022-07-29T07:49:23.471Z,21.52
2022-07-29T07:50:25.243Z,21.72
2022-07-29T07:51:26.745Z,21.95
2022-07-29T07:52:28.209Z,22.14
2022-07-29T07:53:29.918Z,22.01
2022-07-29T07:54:31.446Z,22.01
2022-07-29T07:55:53.538Z,21.92
2022-07-29T07:56:54.333Z,21.90
2022-07-29T07:57:57.197Z,21.51
2022-07-29T07:58:58.640Z,21.39
2022-07-29T08:00:00.085Z,21.25
2022-07-29T08:01:01.563Z,21.06
2022-07-29T08:02:03.461Z,21.41
2022-07-29T08:03:05.045Z,21.36
2022-07-29T08:04:20.986Z,21.20
2022-07-29T08:05:26.544Z,21.13
2022-07-29T08:06:27.997Z,21.32
2022-07-29T08:07:29.498Z,21.68
2022-07-29T08:08:30.974Z,21.86
2022-07-29T08:09:32.440Z,21.83
2022-07-29T08:10:34.308Z,21.61
2022-07-29T08:11:35.780Z,21.94
2022-07-29T08:12:39.227Z,22.37
2022-07-29T08:13:42.134Z,22.65
2022-07-29T08:14:43.558Z,22.47
2022-07-29T08:15:45.067Z,22.59
2022-07-29T08:16:46.842Z,22.70
2022-07-29T08:17:48.335Z,22.50
2022-07-29T08:18:49.785Z,22.70
2022-07-29T08:19:51.232Z,22.52
2022-07-29T08:20:52.752Z,22.32
2022-07-29T08:21:54.665Z,22.52
2022-07-29T08:22:56.582Z,22.69
2022-07-29T08:24:01.795Z,22.70
2022-07-29T08:25:07.524Z,22.98
2022-07-29T08:26:10.253Z,22.86
2022-07-29T08:27:33.616Z,22.86
2022-07-29T08:28:33.607Z,23.10
2022-07-29T08:29:36.493Z,23.07
2022-07-29T08:30:40.938Z,22.68
2022-07-29T08:31:42.743Z,22.35
2022-07-29T08:32:53.851Z,22.34
2022-07-29T08:33:55.919Z,22.39
2022-07-29T08:34:57.382Z,22.51
2022-07-29T08:35:58.921Z,22.65
2022-07-29T08:37:00.345Z,22.28
2022-07-29T08:38:01.882Z,22.72
2022-07-29T08:39:04.201Z,22.85
2022-07-29T08:40:06.489Z,22.98
2022-07-29T08:41:07.996Z,22.46
2022-07-29T08:42:09.440Z,21.99
2022-07-29T08:43:10.906Z,22.54
2022-07-29T08:44:12.708Z,22.73
2022-07-29T08:45:15.452Z,22.85
2022-07-29T08:46:17.092Z,22.68
2022-07-29T08:47:18.560Z,22.92
2022-07-29T08:48:21.898Z,23.09
2022-07-29T08:49:23.437Z,22.99
2022-07-29T08:50:24.980Z,23.22
2022-07-29T08:51:27.622Z,23.42
2022-07-29T08:52:33.461Z,23.92
2022-07-29T08:53:35.394Z,23.54
2022-07-29T08:54:37.311Z,23.78
2022-07-29T08:55:41.176Z,23.96
2022-07-29T08:56:43.209Z,24.07
2022-07-29T08:57:51.961Z,24.35
2022-07-29T08:58:58.587Z,24.29
2022-07-29T09:00:04.942Z,24.13
2022-07-29T09:01:12.823Z,24.34
2022-07-29T09:02:20.616Z,24.14
2022-07-29T09:03:25.716Z,24.34
2022-07-29T09:04:30.637Z,24.43
2022-07-29T09:05:35.768Z,24.50
2022-07-29T09:06:46.032Z,23.81
2022-07-29T09:07:47.782Z,23.59
2022-07-29T09:08:49.426Z,23.75
2022-07-29T09:09:51.034Z,23.74
2022-07-29T09:10:52.716Z,23.44
2022-07-29T09:11:54.494Z,23.55
2022-07-29T09:12:56.409Z,23.60
2022-07-29T09:13:57.861Z,23.48
2022-07-29T09:14:59.350Z,23.59
2022-07-29T09:16:04.497Z,23.61
2022-07-29T09:17:09.975Z,23.98
2022-07-29T09:18:19.782Z,23.71
2022-07-29T09:19:34.097Z,23.67
2022-07-29T09:20:35.587Z,23.54
2022-07-29T09:21:41.832Z,23.98
2022-07-29T09:22:43.378Z,24.32
2022-07-29T09:24:00.655Z,24.37
2022-07-29T09:25:02.180Z,24.03
2022-07-29T09:26:06.695Z,24.12
2022-07-29T09:27:19.830Z,24.02
2022-07-29T09:28:21.344Z,23.59
2022-07-29T09:29:24.697Z,23.21
2022-07-29T09:30:30.291Z,23.02
2022-07-29T09:31:35.037Z,22.61
2022-07-29T09:32:55.445Z,23.07
2022-07-29T09:33:58.966Z,22.69
2022-07-29T09:35:19.993Z,22.52
2022-07-29T09:36:21.507Z,22.86
2022-07-29T09:37:29.653Z,23.01
2022-07-29T09:38:31.214Z,23.22
2022-07-29T09:39:34.820Z,22.77
2022-07-29T09:40:36.338Z,22.95
2022-07-29T09:41:56.235Z,22.67
2022-07-29T09:42:57.687Z,22.95
2022-07-29T09:44:00.647Z,22.94
2022-07-29T09:45:02.133Z,22.73
2022-07-29T09:46:12.334Z,22.63
2022-07-29T09:47:14.077Z,22.59
2022-07-29T09:48:18.897Z,22.43
2022-07-29T09:49:20.472Z,22.68
2022-07-29T09:50:22.104Z,22.58
2022-07-29T09:51:37.751Z,22.86
2022-07-29T09:52:48.292Z,22.85
2022-07-29T09:53:49.914Z,22.97
2022-07-29T09:54:51.454Z,22.57
2022-07-29T09:55:53.253Z,22.85
2022-07-29T09:56:55.920Z,23.30
2022-07-29T09:58:16.290Z,22.79
2022-07-29T09:59:17.875Z,23.20
2022-07-29T10:00:20.904Z,23.52
2022-07-29T10:01:28.797Z,23.36
2022-07-29T10:02:32.483Z,23.56
2022-07-29T10:03:51.723Z,23.56
2022-07-29T10:04:53.271Z,23.37
2022-07-29T10:06:08.364Z,23.84
2022-07-29T10:07:10.338Z,23.52
2022-07-29T10:08:12.732Z,23.51
2022-07-29T10:09:14.229Z,23.66
2022-07-29T10:10:23.501Z,23.73
2022-07-29T10:11:24.946Z,23.34
2022-07-29T10:12:51.263Z,23.48
2022-07-29T10:13:52.930Z,23.62
2022-07-29T10:14:55.080Z,23.49
2022-07-29T10:15:56.671Z,23.44
2022-07-29T10:16:59.060Z,23.37
2022-07-29T10:18:00.787Z,23.60
2022-07-29T10:19:03.650Z,23.20
2022-07-29T10:20:06.188Z,23.69
2022-07-29T10:21:08.041Z,23.57
2022-07-29T10:22:11.133Z,23.51
2022-07-29T10:23:12.792Z,23.42
2022-07-29T10:24:14.876Z,23.26
2022-07-29T10:25:17.332Z,23.24
2022-07-29T10:26:19.923Z,23.03
2022-07-29T10:27:21.545Z,23.21
2022-07-29T10:28:23.082Z,23.22
2022-07-29T10:29:25.210Z,23.23
2022-07-29T10:30:27.381Z,23.01
2022-07-29T10:31:38.208Z,22.97
2022-07-29T10:33:09.415Z,22.97
2022-07-29T10:34:23.943Z,22.95
2022-07-29T10:35:45.645Z,22.62
2022-07-29T10:36:55.543Z,22.76
2022-07-29T10:38:20.533Z,22.57
2022-07-29T10:39:44.542Z,22.65
2022-07-29T10:40:57.351Z,22.63
2022-07-29T10:43:17.108Z,22.37
2022-07-29T10:44:23.018Z,22.29
2022-07-29T10:45:25.344Z,22.93
2022-07-29T10:46:34.926Z,23.19
2022-07-29T10:47:37.982Z,23.32
2022-07-29T10:49:15.619Z,23.06
2022-07-29T10:50:17.578Z,23.60
2022-07-29T10:51:19.106Z,23.56
2022-07-29T10:52:20.895Z,23.83
2022-07-29T10:53:49.772Z,23.73
2022-07-29T10:54:52.636Z,23.73
2022-07-29T10:55:54.148Z,23.28
2022-07-29T10:56:55.609Z,23.62
2022-07-29T10:58:15.768Z,23.92
2022-07-29T10:59:25.967Z,23.66
2022-07-29T11:00:34.018Z,23.35
2022-07-29T11:01:37.420Z,23.19
2022-07-29T11:04:05.234Z,23.43
2022-07-29T11:05:13.224Z,23.52
2022-07-29T11:06:15.232Z,23.53
2022-07-29T11:07:16.769Z,23.59
2022-07-29T11:08:26.048Z,23.69
2022-07-29T11:09:37.566Z,23.66
2022-07-29T11:10:40.430Z,23.57
2022-07-29T11:11:44.075Z,23.70
2022-07-29T11:12:59.710Z,23.86
2022-07-29T11:14:01.266Z,23.91
2022-07-29T11:15:03.227Z,23.55
2022-07-29T11:16:05.369Z,23.79
2022-07-29T11:17:07.208Z,23.82
2022-07-29T11:18:15.080Z,23.66
2022-07-29T11:19:26.191Z,23.75
2022-07-29T11:20:35.106Z,23.60
2022-07-29T11:21:53.369Z,23.92
2022-07-29T11:22:56.513Z,24.02
2022-07-29T11:24:12.801Z,23.66
2022-07-29T11:25:50.340Z,23.55
2022-07-29T11:26:42.283Z,23.39
2022-07-29T11:27:48.087Z,23.12
2022-07-29T11:28:57.727Z,23.18
2022-07-29T11:30:01.322Z,23.08
2022-07-29T11:31:04.486Z,23.21
2022-07-29T11:32:15.816Z,23.25
2022-07-29T11:33:54.138Z,23.08
2022-07-29T11:35:17.464Z,23.18
2022-07-29T11:36:27.958Z,23.08
2022-07-29T11:37:30.074Z,22.95
2022-07-29T11:38:33.331Z,22.83
2022-07-29T11:39:36.360Z,22.91
2022-07-29T11:40:38.811Z,22.88
2022-07-29T11:41:44.274Z,23.00
2022-07-29T11:42:52.148Z,23.21
2022-07-29T11:43:55.661Z,23.35
2022-07-29T11:44:58.840Z,23.41
2022-07-29T11:46:05.998Z,23.45
2022-07-29T11:47:12.015Z,23.48
2022-07-29T11:48:28.798Z,23.59
2022-07-29T11:49:33.304Z,23.67
2022-07-29T11:50:37.857Z,23.50
2022-07-29T11:51:52.542Z,23.81
2022-07-29T11:52:54.574Z,23.58
2022-07-29T11:54:02.580Z,23.50
2022-07-29T11:56:32.677Z,24.15
2022-07-29T11:57:37.373Z,24.11
2022-07-29T11:58:39.232Z,24.02
2022-07-29T11:59:41.362Z,23.75
2022-07-29T12:00:47.089Z,24.10
2022-07-29T12:02:12.038Z,24.47
2022-07-29T12:03:35.119Z,24.31
2022-07-29T12:04:49.238Z,24.57
2022-07-29T12:05:51.922Z,24.96
2022-07-29T12:06:55.741Z,24.94
2022-07-29T12:08:05.980Z,25.24
2022-07-29T12:09:08.422Z,25.12
2022-07-29T12:10:19.456Z,25.45
2022-07-29T12:11:23.398Z,25.29
2022-07-29T12:12:25.446Z,25.51
2022-07-29T12:13:39.936Z,25.24
2022-07-29T12:14:41.394Z,25.29
2022-07-29T12:15:47.130Z,25.39
2022-07-29T12:16:48.987Z,25.21
2022-07-29T12:17:50.628Z,25.40
2022-07-29T12:18:59.671Z,25.55
2022-07-29T12:20:03.773Z,25.44
2022-07-29T12:21:05.295Z,25.36
2022-07-29T12:22:08.076Z,25.59
2022-07-29T12:23:10.663Z,25.23
2022-07-29T12:24:15.081Z,25.22
2022-07-29T12:25:33.075Z,24.86
2022-07-29T12:26:35.927Z,24.51
2022-07-29T12:27:40.582Z,24.56
2022-07-29T12:28:42.215Z,25.04
2022-07-29T12:29:57.005Z,25.17
2022-07-29T12:31:00.148Z,24.89
2022-07-29T12:32:04.986Z,24.90
2022-07-29T12:33:12.548Z,25.01
2022-07-29T12:34:16.589Z,25.02
2022-07-29T12:35:20.525Z,25.16
2022-07-29T12:36:22.045Z,25.28
2022-07-29T12:37:38.966Z,25.68
2022-07-29T12:38:43.008Z,25.83
2022-07-29T12:39:44.606Z,25.88
2022-07-29T12:40:47.919Z,25.83
2022-07-29T12:41:49.377Z,25.89
2022-07-29T12:43:07.082Z,25.90
2022-07-29T12:44:08.587Z,25.72
2022-07-29T12:45:10.438Z,25.66
2022-07-29T12:46:13.868Z,25.09
2022-07-29T12:47:15.646Z,25.35
2022-07-29T12:48:17.537Z,25.24
2022-07-29T12:49:22.781Z,25.42
2022-07-29T12:50:26.465Z,25.55
2022-07-29T12:51:32.339Z,25.75
2022-07-29T12:52:36.081Z,25.86
2022-07-29T12:53:38.525Z,25.59
2022-07-29T12:54:47.532Z,25.32
2022-07-29T12:55:50.889Z,24.88
2022-07-29T12:57:00.384Z,25.31
2022-07-29T12:58:02.395Z,25.42
2022-07-29T12:59:13.169Z,25.57
2022-07-29T13:00:16.001Z,25.43
2022-07-29T13:01:19.329Z,25.18
2022-07-29T13:02:24.188Z,25.15
2022-07-29T13:03:25.796Z,25.32
2022-07-29T13:04:30.272Z,25.35
2022-07-29T13:05:44.595Z,25.51
2022-07-29T13:06:59.552Z,25.41
2022-07-29T13:08:20.399Z,25.06
2022-07-29T13:09:23.859Z,24.86
2022-07-29T13:10:25.357Z,23.82
2022-07-29T13:11:31.053Z,21.86
2022-07-29T13:12:35.667Z,21.94
2022-07-29T13:13:51.211Z,21.16
2022-07-29T13:15:14.905Z,20.60
2022-07-29T13:16:17.259Z,19.77
2022-07-29T13:17:20.762Z,19.12
2022-07-29T13:18:28.844Z,18.49
2022-07-29T13:19:36.328Z,18.02
2022-07-29T13:20:37.872Z,18.44
2022-07-29T13:21:40.132Z,18.35
2022-07-29T13:22:42.422Z,18.31
2022-07-29T13:23:45.208Z,18.27
2022-07-29T13:24:48.532Z,18.47
2022-07-29T13:25:50.025Z,18.17
2022-07-29T13:26:51.489Z,18.01
2022-07-29T13:27:53.077Z,18.19
2022-07-29T13:28:54.961Z,18.18
2022-07-29T13:29:57.787Z,17.82
2022-07-29T13:30:59.459Z,17.57
2022-07-29T13:32:01.313Z,17.44
2022-07-29T13:33:03.054Z,17.16
2022-07-29T13:34:04.474Z,17.20
2022-07-29T13:35:08.253Z,16.96
2022-07-29T13:36:09.677Z,16.87
2022-07-29T13:37:11.136Z,16.81
2022-07-29T13:38:12.580Z,16.62
2022-07-29T13:39:15.320Z,16.41
2022-07-29T13:40:16.880Z,16.48
2022-07-29T13:41:18.469Z,16.42
2022-07-29T13:42:20.735Z,16.37
2022-07-29T13:43:22.206Z,16.51
2022-07-29T13:44:23.657Z,16.38
2022-07-29T13:45:25.153Z,16.32
2022-07-29T13:46:30.565Z,16.20
2022-07-29T13:47:33.281Z,16.25
2022-07-29T13:48:34.945Z,16.30
2022-07-29T13:49:36.586Z,16.37
2022-07-29T13:50:38.058Z,16.23
2022-07-29T13:51:39.726Z,16.20
2022-07-29T13:52:41.184Z,16.13
2022-07-29T13:53:42.627Z,16.12